createdAt,value
2017-07-21T00:00:04.142Z,15.10
2017-07-21T00:02:33.057Z,15.80
2017-07-21T00:05:01.938Z,13.93
2017-07-21T00:07:30.844Z,14.37
2017-07-21T00:09:59.720Z,14.00
2017-07-21T00:12:28.611Z,15.40
2017-07-21T00:14:57.522Z,16.33
2017-07-21T00:17:26.402Z,15.33
2017-07-21T00:19:55.295Z,16.20
2017-07-21T00:22:24.175Z,14.50
2017-07-21T00:24:53.067Z,15.80
2017-07-21T00:27:21.954Z,14.93
2017-07-21T00:29:50.863Z,16.20
2017-07-21T00:32:19.750Z,17.27
2017-07-21T00:34:48.671Z,15.37
2017-07-21T00:37:17.563Z,14.03
2017-07-21T00:39:46.484Z,14.33
2017-07-21T00:42:15.376Z,16.30
2017-07-21T00:44:44.265Z,14.83
2017-07-21T00:47:13.147Z,13.83
2017-07-21T00:49:42.067Z,16.60
2017-07-21T00:52:10.963Z,16.30
2017-07-21T00:54:39.876Z,15.40
2017-07-21T00:57:08.780Z,15.13
2017-07-21T00:59:37.682Z,16.23
2017-07-21T01:02:06.587Z,16.30
2017-07-21T01:04:35.485Z,15.63
2017-07-21T01:07:04.371Z,14.63
2017-07-21T01:09:33.304Z,15.03
2017-07-21T01:12:02.183Z,14.60
2017-07-21T01:14:31.058Z,15.00
2017-07-21T01:16:59.959Z,14.93
2017-07-21T01:19:28.842Z,16.60
2017-07-21T01:21:57.751Z,15.30
2017-07-21T01:24:26.630Z,15.07
2017-07-21T01:26:55.523Z,14.27
2017-07-21T01:29:24.411Z,15.10
2017-07-21T01:31:53.330Z,15.43
2017-07-21T01:34:22.221Z,16.13
2017-07-21T01:36:51.119Z,16.33
2017-07-21T01:39:20.027Z,15.40
2017-07-21T01:41:48.926Z,16.70
2017-07-21T01:44:17.821Z,16.20
2017-07-21T01:46:46.735Z,16.00
2017-07-21T01:49:15.632Z,16.43
2017-07-21T01:51:44.508Z,16.90
2017-07-21T01:54:13.407Z,19.17
2017-07-21T01:56:42.383Z,18.07
2017-07-21T01:59:11.299Z,16.97
2017-07-21T02:01:40.185Z,18.60
2017-07-21T02:04:09.093Z,19.90
2017-07-21T02:06:37.984Z,17.70
2017-07-21T02:09:06.875Z,19.00
2017-07-21T02:11:35.774Z,19.33
2017-07-21T02:14:04.670Z,19.40
2017-07-21T02:16:33.630Z,17.30
2017-07-21T02:19:02.517Z,18.97
2017-07-21T02:21:31.401Z,19.10
2017-07-21T02:24:00.307Z,18.57
2017-07-21T02:26:29.192Z,19.83
2017-07-21T02:28:58.097Z,19.67
2017-07-21T02:31:26.971Z,21.57
2017-07-21T02:33:55.860Z,18.67
2017-07-21T02:36:24.778Z,19.37
2017-07-21T02:38:53.666Z,20.67
2017-07-21T02:41:22.580Z,19.40
2017-07-21T02:43:51.463Z,19.33
2017-07-21T02:46:20.362Z,20.90
2017-07-21T02:48:49.249Z,21.20
2017-07-21T02:51:18.149Z,22.33
2017-07-21T02:53:46.430Z,20.40
2017-07-21T02:56:15.322Z,19.00
2017-07-21T02:58:44.208Z,17.80
2017-07-21T03:01:13.110Z,19.03
2017-07-21T03:03:41.999Z,18.27
2017-07-21T03:06:10.892Z,15.73
2017-07-21T03:08:39.789Z,16.07
2017-07-21T03:11:08.702Z,17.20
2017-07-21T03:13:37.587Z,15.80
2017-07-21T03:16:06.502Z,15.97
2017-07-21T03:18:35.374Z,14.87
2017-07-21T03:21:04.262Z,15.40
2017-07-21T03:23:33.154Z,15.30
2017-07-21T03:26:02.044Z,13.00
2017-07-21T03:28:30.947Z,14.27
2017-07-21T03:30:59.834Z,14.63
2017-07-21T03:33:28.743Z,13.87
2017-07-21T03:35:57.640Z,13.33
2017-07-21T03:38:26.602Z,15.30
2017-07-21T03:40:55.494Z,14.17
2017-07-21T03:43:24.398Z,13.67
2017-07-21T03:45:53.309Z,13.27
2017-07-21T03:48:22.218Z,14.20
2017-07-21T03:50:51.107Z,14.30
2017-07-21T03:53:20.007Z,13.43
2017-07-21T03:55:48.882Z,13.83
2017-07-21T03:58:17.777Z,14.73
2017-07-21T04:00:46.663Z,13.70
2017-07-21T04:03:15.550Z,13.37
2017-07-21T04:05:44.427Z,12.87
2017-07-21T04:08:13.325Z,14.50
2017-07-21T04:10:42.203Z,12.80
2017-07-21T04:13:11.107Z,14.13
2017-07-21T04:15:40.026Z,14.97
2017-07-21T04:18:08.905Z,13.40
2017-07-21T04:20:37.802Z,13.53
2017-07-21T04:23:06.672Z,13.10
2017-07-21T04:25:35.580Z,14.43
2017-07-21T04:28:04.464Z,11.97
2017-07-21T04:30:33.369Z,13.90
2017-07-21T04:33:02.247Z,13.10
2017-07-21T04:35:31.141Z,10.90
2017-07-21T04:38:00.029Z,11.50
2017-07-21T04:40:28.924Z,11.87
2017-07-21T04:42:57.807Z,11.70
2017-07-21T04:45:26.780Z,10.77
2017-07-21T04:47:55.664Z,11.50
2017-07-21T04:50:24.581Z,12.30
2017-07-21T04:52:53.464Z,10.90
2017-07-21T04:55:22.363Z,10.67
2017-07-21T04:57:51.247Z,11.00
2017-07-21T05:00:20.142Z,10.13
2017-07-21T05:02:49.051Z,10.17
2017-07-21T05:05:17.960Z,11.03
2017-07-21T05:07:46.836Z,11.13
2017-07-21T05:10:15.732Z,11.83
2017-07-21T05:12:44.619Z,10.00
2017-07-21T05:15:13.594Z,10.80
2017-07-21T05:17:42.477Z,11.27
2017-07-21T05:20:11.390Z,11.10
2017-07-21T05:22:40.287Z,12.03
2017-07-21T05:25:09.174Z,10.70
2017-07-21T05:27:38.076Z,9.30
2017-07-21T05:30:07.069Z,10.43
2017-07-21T05:32:35.974Z,11.37
2017-07-21T05:35:04.870Z,9.63
2017-07-21T05:37:33.782Z,9.80
2017-07-21T05:40:02.668Z,8.90
2017-07-21T05:42:31.747Z,10.97
2017-07-21T05:45:00.639Z,10.73
2017-07-21T05:47:29.556Z,9.50
2017-07-21T05:49:58.470Z,9.30
2017-07-21T05:52:27.385Z,9.27
2017-07-21T05:54:54.910Z,8.63
2017-07-21T05:57:22.468Z,9.80
2017-07-21T05:59:50.037Z,10.00
2017-07-21T06:02:17.580Z,7.97
2017-07-21T06:04:45.139Z,8.00
2017-07-21T06:07:14.056Z,7.93
2017-07-21T06:09:42.384Z,7.97
2017-07-21T06:12:09.953Z,7.17
2017-07-21T06:14:37.498Z,8.27
2017-07-21T06:17:05.027Z,7.90
2017-07-21T06:19:32.599Z,9.43
2017-07-21T06:22:00.251Z,8.70
2017-07-21T06:24:27.806Z,9.10
2017-07-21T06:26:55.332Z,8.17
2017-07-21T06:29:22.917Z,8.73
2017-07-21T06:31:50.454Z,8.00
2017-07-21T06:34:18.013Z,8.70
2017-07-21T06:36:46.907Z,9.40
2017-07-21T06:39:15.787Z,7.83
2017-07-21T06:41:44.749Z,8.90
2017-07-21T06:44:13.643Z,9.70
2017-07-21T06:46:41.182Z,8.83
2017-07-21T06:49:10.070Z,9.10
2017-07-21T06:51:38.779Z,8.10
2017-07-21T06:54:06.291Z,8.30
2017-07-21T06:56:33.842Z,8.10
2017-07-21T06:59:02.574Z,8.80
2017-07-21T07:01:30.134Z,8.70
2017-07-21T07:03:57.698Z,8.73
2017-07-21T07:06:26.599Z,7.67
2017-07-21T07:08:55.482Z,6.43
2017-07-21T07:11:24.388Z,8.03
2017-07-21T07:13:53.271Z,8.10
2017-07-21T07:16:22.175Z,8.63
2017-07-21T07:18:51.054Z,8.53
2017-07-21T07:21:19.953Z,7.10
2017-07-21T07:23:48.888Z,8.00
2017-07-21T07:26:16.430Z,8.03
2017-07-21T07:28:43.990Z,6.83
2017-07-21T07:31:12.329Z,7.60
2017-07-21T07:33:39.925Z,8.40
2017-07-21T07:36:07.458Z,8.17
2017-07-21T07:38:35.007Z,8.13
2017-07-21T07:41:02.555Z,7.30
2017-07-21T07:43:30.102Z,8.87
2017-07-21T07:45:57.650Z,7.80
2017-07-21T07:48:25.202Z,7.17
2017-07-21T07:50:53.513Z,8.03
2017-07-21T07:53:21.090Z,8.50
2017-07-21T07:55:48.634Z,7.70
2017-07-21T07:58:16.157Z,9.00
2017-07-21T08:00:44.477Z,8.33
2017-07-21T08:03:12.006Z,8.90
2017-07-21T08:05:39.562Z,8.00
2017-07-21T08:08:08.525Z,7.77
2017-07-21T08:10:36.086Z,8.17
2017-07-21T08:13:05.003Z,7.10
2017-07-21T08:15:33.944Z,7.67
2017-07-21T08:18:02.830Z,7.23
2017-07-21T08:20:31.728Z,7.17
2017-07-21T08:23:00.596Z,7.07
2017-07-21T08:25:29.496Z,7.50
2017-07-21T08:27:58.413Z,7.93
2017-07-21T08:30:27.305Z,8.30
2017-07-21T08:32:56.202Z,6.77
2017-07-21T08:35:25.082Z,7.90
2017-07-21T08:37:53.989Z,7.67
2017-07-21T08:40:22.878Z,7.17
2017-07-21T08:42:51.764Z,6.43
2017-07-21T08:45:20.671Z,7.67
2017-07-21T08:47:49.560Z,6.67
2017-07-21T08:50:18.451Z,9.00
2017-07-21T08:52:47.341Z,7.63
2017-07-21T08:55:16.232Z,8.47
2017-07-21T08:57:45.122Z,8.50
2017-07-21T09:00:14.026Z,7.30
2017-07-21T09:02:42.943Z,7.93
2017-07-21T09:05:11.842Z,7.30
2017-07-21T09:07:40.722Z,6.80
2017-07-21T09:10:09.604Z,6.70
2017-07-21T09:12:38.514Z,6.50
2017-07-21T09:15:07.411Z,6.70
2017-07-21T09:17:36.344Z,6.27
2017-07-21T09:20:05.265Z,6.90
2017-07-21T09:22:34.157Z,6.70
2017-07-21T09:25:03.230Z,6.40
2017-07-21T09:27:32.170Z,6.90
2017-07-21T09:30:01.045Z,5.65
2017-07-21T09:32:29.961Z,7.32
2017-07-21T09:34:58.911Z,7.20
2017-07-21T09:37:27.806Z,6.97
2017-07-21T09:39:56.759Z,6.50
2017-07-21T09:42:25.773Z,6.82
2017-07-21T09:44:54.654Z,6.65
2017-07-21T09:47:23.601Z,7.00
2017-07-21T09:49:52.528Z,7.93
2017-07-21T09:52:21.418Z,7.50
2017-07-21T09:54:50.434Z,6.47
2017-07-21T09:57:19.335Z,6.22
2017-07-21T09:59:48.243Z,7.10
2017-07-21T10:02:17.131Z,7.18
2017-07-21T10:04:45.623Z,6.60
2017-07-21T10:07:14.524Z,7.43
2017-07-21T10:09:43.416Z,8.07
2017-07-21T10:12:12.290Z,7.68
2017-07-21T10:14:41.192Z,7.50
2017-07-21T10:17:10.075Z,6.12
2017-07-21T10:19:38.979Z,6.03
2017-07-21T10:22:07.856Z,7.00
2017-07-21T10:24:36.755Z,6.60
2017-07-21T10:27:05.749Z,7.10
2017-07-21T10:29:34.634Z,6.32
2017-07-21T10:32:03.506Z,6.43
2017-07-21T10:34:32.585Z,6.22
2017-07-21T10:37:01.539Z,6.10
2017-07-21T10:39:30.427Z,5.28
2017-07-21T10:41:59.330Z,5.90
2017-07-21T10:44:28.201Z,5.43
2017-07-21T10:46:55.744Z,5.47
2017-07-21T10:49:24.618Z,4.75
2017-07-21T10:51:53.524Z,6.03
2017-07-21T10:54:22.399Z,4.93
2017-07-21T10:56:51.309Z,5.50
2017-07-21T10:59:20.207Z,6.03
2017-07-21T11:01:49.102Z,5.37
2017-07-21T11:04:17.406Z,4.07
2017-07-21T11:06:45.727Z,4.40
2017-07-21T11:09:13.253Z,4.78
2017-07-21T11:11:42.396Z,5.00
2017-07-21T11:14:09.932Z,5.07
2017-07-21T11:16:37.471Z,4.45
2017-07-21T11:19:05.067Z,4.05
2017-07-21T11:21:33.984Z,4.85
2017-07-21T11:24:02.883Z,4.85
2017-07-21T11:26:31.750Z,3.90
2017-07-21T11:29:00.654Z,3.92
2017-07-21T11:31:29.547Z,4.50
2017-07-21T11:33:58.438Z,6.62
2017-07-21T11:36:26.734Z,5.37
2017-07-21T11:38:55.047Z,4.57
2017-07-21T11:41:22.583Z,4.68
2017-07-21T11:43:50.122Z,4.78
2017-07-21T11:46:17.876Z,4.20
2017-07-21T11:48:45.426Z,3.80
2017-07-21T11:51:12.968Z,3.65
2017-07-21T11:53:40.548Z,3.55
2017-07-21T11:56:08.111Z,4.20
2017-07-21T11:58:35.648Z,4.50
2017-07-21T12:01:03.236Z,5.10
2017-07-21T12:03:30.779Z,3.55
2017-07-21T12:05:58.345Z,3.72
2017-07-21T12:08:25.899Z,3.50
2017-07-21T12:10:53.460Z,3.60
2017-07-21T12:13:20.986Z,4.60
2017-07-21T12:15:48.538Z,4.72
2017-07-21T12:18:16.880Z,4.32
2017-07-21T12:20:44.424Z,4.80
2017-07-21T12:23:11.977Z,4.22
2017-07-21T12:25:39.639Z,3.90
2017-07-21T12:28:07.180Z,4.12
2017-07-21T12:30:34.732Z,4.55
2017-07-21T12:33:02.288Z,4.25
2017-07-21T12:35:29.824Z,3.25
2017-07-21T12:37:57.366Z,3.47
2017-07-21T12:40:24.887Z,4.07
2017-07-21T12:42:53.800Z,4.45
2017-07-21T12:45:22.695Z,4.15
2017-07-21T12:47:51.619Z,2.97
2017-07-21T12:50:20.518Z,3.28
2017-07-21T12:52:49.520Z,3.17
2017-07-21T12:55:18.393Z,3.90
2017-07-21T12:57:47.284Z,3.22
2017-07-21T13:00:16.162Z,2.83
2017-07-21T13:02:45.075Z,3.50
2017-07-21T13:05:13.958Z,2.92
2017-07-21T13:07:42.997Z,2.90
2017-07-21T13:10:11.879Z,3.17
2017-07-21T13:12:40.778Z,2.95
2017-07-21T13:15:09.447Z,3.55
2017-07-21T13:17:36.971Z,5.55
2017-07-21T13:20:04.526Z,4.18
2017-07-21T13:22:32.069Z,5.60
2017-07-21T13:24:59.636Z,3.85
2017-07-21T13:27:27.197Z,2.55
2017-07-21T13:29:54.769Z,2.80
2017-07-21T13:32:22.291Z,3.40
2017-07-21T13:34:51.224Z,2.67
2017-07-21T13:37:20.116Z,3.47
2017-07-21T13:39:49.039Z,2.50
2017-07-21T13:42:17.939Z,3.30
2017-07-21T13:44:46.843Z,2.72
2017-07-21T13:47:15.730Z,2.90
2017-07-21T13:49:44.637Z,3.70
2017-07-21T13:52:13.511Z,3.33
2017-07-21T13:54:42.398Z,5.03
2017-07-21T13:57:11.290Z,3.90
2017-07-21T13:59:40.175Z,3.20
2017-07-21T14:02:09.083Z,3.22
2017-07-21T14:04:38.035Z,3.30
2017-07-21T14:07:06.927Z,3.55
2017-07-21T14:09:35.823Z,3.20
2017-07-21T14:12:04.807Z,3.25
2017-07-21T14:14:33.694Z,3.33
2017-07-21T14:17:02.587Z,3.70
2017-07-21T14:19:31.486Z,3.62
2017-07-21T14:22:00.389Z,3.75
2017-07-21T14:24:29.278Z,3.00
2017-07-21T14:26:58.186Z,3.05
2017-07-21T14:29:27.059Z,3.47
2017-07-21T14:31:55.950Z,3.35
2017-07-21T14:34:24.837Z,3.12
2017-07-21T14:36:53.719Z,3.25
2017-07-21T14:39:22.725Z,3.40
2017-07-21T14:41:51.639Z,3.20
2017-07-21T14:44:20.607Z,2.92
2017-07-21T14:46:49.477Z,3.35
2017-07-21T14:49:18.362Z,3.17
2017-07-21T14:51:47.238Z,2.62
2017-07-21T14:54:16.145Z,3.33
2017-07-21T14:56:45.035Z,3.95
2017-07-21T14:59:13.918Z,3.33
2017-07-21T15:01:42.834Z,3.35
2017-07-21T15:04:11.833Z,3.20
2017-07-21T15:06:40.720Z,2.67
2017-07-21T15:09:09.624Z,3.35
2017-07-21T15:11:38.511Z,2.80
2017-07-21T15:14:07.507Z,3.25
2017-07-21T15:16:36.373Z,3.85
2017-07-21T15:19:05.273Z,4.82
2017-07-21T15:21:34.160Z,3.60
2017-07-21T15:24:03.071Z,3.60
2017-07-21T15:26:32.045Z,3.80
2017-07-21T15:29:00.941Z,3.28
2017-07-21T15:31:29.824Z,2.92
2017-07-21T15:33:58.711Z,4.00
2017-07-21T15:36:27.616Z,3.47
2017-07-21T15:38:56.601Z,3.55
2017-07-21T15:41:25.504Z,2.85
2017-07-21T15:43:54.391Z,4.22
2017-07-21T15:46:23.286Z,2.97
2017-07-21T15:48:52.186Z,3.55
2017-07-21T15:51:21.079Z,2.67
2017-07-21T15:53:49.954Z,3.67
2017-07-21T15:56:18.874Z,2.97
2017-07-21T15:58:47.772Z,3.65
2017-07-21T16:01:16.766Z,3.50
2017-07-21T16:03:45.655Z,4.53
2017-07-21T16:06:14.553Z,3.67
2017-07-21T16:08:43.538Z,2.78
2017-07-21T16:11:12.471Z,3.53
2017-07-21T16:13:41.432Z,3.35
2017-07-21T16:16:10.309Z,4.43
2017-07-21T16:18:39.223Z,3.70
2017-07-21T16:21:08.110Z,2.83
2017-07-21T16:23:37.010Z,2.97
2017-07-21T16:26:05.878Z,3.12
2017-07-21T16:28:34.769Z,2.80
2017-07-21T16:31:03.642Z,6.55
2017-07-21T16:33:32.557Z,3.90
2017-07-21T16:36:01.435Z,3.62
2017-07-21T16:38:30.344Z,3.17
2017-07-21T16:40:59.339Z,3.67
2017-07-21T16:43:28.268Z,3.20
2017-07-21T16:45:57.223Z,3.28
2017-07-21T16:48:26.121Z,3.85
2017-07-21T16:50:54.998Z,4.20
2017-07-21T16:53:24.011Z,4.68
2017-07-21T16:55:52.900Z,5.80
2017-07-21T16:58:21.803Z,8.80
2017-07-21T17:00:50.708Z,5.82
2017-07-21T17:03:19.590Z,5.30
2017-07-21T17:05:48.554Z,5.15
2017-07-21T17:08:17.448Z,5.07
2017-07-21T17:10:46.345Z,5.60
2017-07-21T17:13:13.875Z,4.90
2017-07-21T17:15:41.476Z,6.40
2017-07-21T17:18:09.056Z,5.30
2017-07-21T17:20:36.616Z,5.00
2017-07-21T17:23:04.925Z,5.37
2017-07-21T17:25:32.482Z,4.97
2017-07-21T17:28:00.007Z,5.30
2017-07-21T17:30:28.326Z,5.73
2017-07-21T17:32:55.868Z,6.83
2017-07-21T17:35:23.418Z,4.13
2017-07-21T17:37:51.747Z,5.00
2017-07-21T17:40:19.291Z,4.20
2017-07-21T17:42:46.853Z,4.67
2017-07-21T17:45:14.418Z,6.03
2017-07-21T17:47:41.971Z,6.27
2017-07-21T17:50:09.506Z,5.20
2017-07-21T17:52:37.080Z,4.03
2017-07-21T17:55:04.620Z,3.83
2017-07-21T17:57:33.069Z,3.47
2017-07-21T18:00:00.714Z,3.50
2017-07-21T18:02:28.276Z,4.30
2017-07-21T18:04:55.802Z,4.83
2017-07-21T18:07:23.376Z,4.30
2017-07-21T18:09:50.900Z,3.80
2017-07-21T18:12:18.463Z,4.33
2017-07-21T18:14:46.766Z,4.33
2017-07-21T18:17:14.289Z,4.73
2017-07-21T18:19:42.615Z,4.03
2017-07-21T18:22:10.151Z,4.00
2017-07-21T18:24:37.746Z,3.63
2017-07-21T18:27:05.288Z,4.47
2017-07-21T18:29:32.830Z,3.90
2017-07-21T18:32:00.357Z,5.20
2017-07-21T18:34:27.916Z,4.23
2017-07-21T18:36:55.451Z,3.80
2017-07-21T18:39:23.010Z,2.97
2017-07-21T18:41:50.557Z,3.43
2017-07-21T18:44:18.118Z,3.60
2017-07-21T18:46:45.658Z,5.37
2017-07-21T18:49:13.212Z,4.07
2017-07-21T18:51:40.774Z,3.97
2017-07-21T18:54:08.386Z,4.00
2017-07-21T18:56:35.947Z,2.90
2017-07-21T18:59:03.480Z,4.07
2017-07-21T19:01:31.027Z,3.80
2017-07-21T19:03:58.567Z,3.60
2017-07-21T19:06:26.115Z,3.20
2017-07-21T19:08:53.648Z,3.70
2017-07-21T19:11:21.199Z,4.47
2017-07-21T19:13:48.750Z,3.70
2017-07-21T19:16:16.308Z,4.20
2017-07-21T19:18:43.831Z,3.30
2017-07-21T19:21:11.375Z,4.40
2017-07-21T19:23:39.720Z,3.97
2017-07-21T19:26:07.378Z,3.60
2017-07-21T19:28:34.918Z,4.13
2017-07-21T19:31:02.454Z,3.70
2017-07-21T19:33:30.055Z,3.60
2017-07-21T19:35:57.621Z,4.27
2017-07-21T19:38:25.164Z,5.00
2017-07-21T19:40:52.826Z,4.03
2017-07-21T19:43:20.392Z,5.20
2017-07-21T19:45:47.921Z,4.60
2017-07-21T19:48:15.462Z,5.07
2017-07-21T19:50:43.008Z,4.90
2017-07-21T19:53:10.564Z,5.83
2017-07-21T19:55:38.104Z,5.70
2017-07-21T19:58:05.675Z,4.97
2017-07-21T20:00:33.195Z,5.60
2017-07-21T20:03:00.754Z,5.90
2017-07-21T20:05:28.453Z,5.73
2017-07-21T20:07:56.998Z,6.30
2017-07-21T20:10:24.551Z,6.80
2017-07-21T20:12:52.084Z,6.63
2017-07-21T20:15:19.626Z,7.23
2017-07-21T20:17:47.151Z,9.50
2017-07-21T20:20:14.715Z,6.20
2017-07-21T20:22:42.253Z,7.77
2017-07-21T20:25:09.812Z,8.30
2017-07-21T20:27:37.503Z,8.53
2017-07-21T20:30:05.043Z,6.90
2017-07-21T20:32:32.599Z,6.47
2017-07-21T20:35:00.154Z,6.20
2017-07-21T20:37:27.772Z,7.87
2017-07-21T20:39:56.667Z,7.27
2017-07-21T20:42:25.556Z,7.63
2017-07-21T20:44:54.450Z,7.73
2017-07-21T20:47:23.338Z,8.40
2017-07-21T20:49:52.273Z,8.63
2017-07-21T20:52:21.147Z,8.60
2017-07-21T20:54:50.066Z,9.37
2017-07-21T20:57:18.994Z,14.17
2017-07-21T20:59:47.893Z,10.57
2017-07-21T21:02:16.765Z,10.97
2017-07-21T21:04:45.637Z,9.27
2017-07-21T21:07:14.548Z,10.33
2017-07-21T21:09:43.457Z,10.80
2017-07-21T21:12:12.371Z,9.83
2017-07-21T21:14:41.254Z,10.37
2017-07-21T21:17:10.246Z,9.93
2017-07-21T21:19:39.136Z,8.90
2017-07-21T21:22:08.041Z,10.03
2017-07-21T21:24:36.913Z,8.60
2017-07-21T21:27:05.819Z,8.70
2017-07-21T21:29:34.696Z,8.53
2017-07-21T21:32:03.593Z,9.73
2017-07-21T21:34:32.484Z,8.43
2017-07-21T21:37:01.369Z,8.97
2017-07-21T21:39:30.242Z,9.33
2017-07-21T21:41:59.143Z,9.70
2017-07-21T21:44:28.040Z,9.63
2017-07-21T21:46:56.959Z,9.80
2017-07-21T21:49:25.863Z,8.10
2017-07-21T21:51:54.754Z,9.33
2017-07-21T21:54:23.660Z,10.40
2017-07-21T21:56:52.637Z,9.90
2017-07-21T21:59:21.553Z,9.67
2017-07-21T22:01:50.429Z,11.13
2017-07-21T22:04:19.337Z,10.03
2017-07-21T22:06:48.227Z,10.27
2017-07-21T22:09:17.123Z,12.80
2017-07-21T22:11:46.026Z,10.30
2017-07-21T22:14:14.939Z,10.57
2017-07-21T22:16:43.823Z,10.67
2017-07-21T22:19:12.714Z,9.67
2017-07-21T22:21:41.607Z,10.20
2017-07-21T22:24:10.498Z,11.13
2017-07-21T22:26:39.372Z,11.33
2017-07-21T22:29:08.265Z,11.10
2017-07-21T22:31:37.146Z,10.17
2017-07-21T22:34:06.044Z,10.90
2017-07-21T22:36:34.964Z,10.50
2017-07-21T22:39:03.839Z,10.07
2017-07-21T22:41:32.742Z,11.03
2017-07-21T22:44:01.656Z,10.70
2017-07-21T22:46:30.551Z,9.27
2017-07-21T22:48:59.440Z,10.20
2017-07-21T22:51:28.342Z,10.30
2017-07-21T22:53:57.233Z,10.77
2017-07-21T22:56:26.153Z,11.17
2017-07-21T22:58:55.034Z,10.13
2017-07-21T23:01:23.934Z,11.27
2017-07-21T23:03:52.819Z,10.30
2017-07-21T23:06:21.723Z,11.17
2017-07-21T23:08:50.618Z,9.63
2017-07-21T23:11:19.531Z,10.97
2017-07-21T23:13:48.420Z,11.47
2017-07-21T23:16:17.304Z,11.60
2017-07-21T23:18:46.221Z,10.63
2017-07-21T23:21:15.104Z,11.00
2017-07-21T23:23:44.008Z,9.93
2017-07-21T23:26:12.903Z,11.50
2017-07-21T23:28:41.807Z,10.50
2017-07-21T23:31:10.686Z,10.47
2017-07-21T23:33:39.594Z,11.53
2017-07-21T23:36:08.488Z,11.20
2017-07-21T23:38:37.375Z,11.10
2017-07-21T23:41:06.285Z,11.97
2017-07-21T23:43:35.196Z,11.90
2017-07-21T23:46:04.086Z,11.37
2017-07-21T23:48:32.989Z,11.57
2017-07-21T23:51:01.886Z,11.40
2017-07-21T23:53:30.816Z,11.57
2017-07-21T23:55:59.704Z,11.80
2017-07-21T23:58:28.595Z,12.20
